createdAt,value
2018-04-18T00:02:16.687Z,102513.84
2018-04-18T00:04:42.367Z,102508.73
2018-04-18T00:07:08.039Z,102513.28
2018-04-18T00:09:33.715Z,102518.75
2018-04-18T00:11:59.392Z,102515.02
2018-04-18T00:14:25.111Z,102507.86
2018-04-18T00:16:51.145Z,102501.13
2018-04-18T00:19:16.827Z,102511.25
2018-04-18T00:21:42.497Z,102521.52
2018-04-18T00:24:08.180Z,102514.56
2018-04-18T00:26:33.855Z,102522.08
2018-04-18T00:28:59.610Z,102519.98
2018-04-18T00:31:25.275Z,102524.95
2018-04-18T00:33:51.187Z,102528.22
2018-04-18T00:36:16.874Z,102528.00
2018-04-18T00:38:42.563Z,102525.09
2018-04-18T00:41:08.234Z,102532.22
2018-04-18T00:43:33.921Z,102528.48
2018-04-18T00:45:59.611Z,102529.58
2018-04-18T00:48:25.292Z,102532.83
2018-04-18T00:50:50.979Z,102532.57
2018-04-18T00:53:16.674Z,102535.83
2018-04-18T00:55:42.390Z,102539.94
2018-04-18T00:58:08.113Z,102533.64
2018-04-18T01:00:33.829Z,102539.95
2018-04-18T01:02:59.487Z,102538.83
2018-04-18T01:05:25.167Z,102536.48
2018-04-18T01:07:51.421Z,102538.84
2018-04-18T01:10:17.244Z,102541.09
2018-04-18T01:12:42.903Z,102540.36
2018-04-18T01:15:08.605Z,102537.03
2018-04-18T01:17:34.272Z,102533.28
2018-04-18T01:19:59.951Z,102550.12
2018-04-18T01:22:25.674Z,102546.80
2018-04-18T01:24:51.351Z,102542.08
2018-04-18T01:27:17.026Z,102540.42
2018-04-18T01:29:42.975Z,102541.46
2018-04-18T01:32:08.807Z,102544.78
2018-04-18T01:34:34.487Z,102537.83
2018-04-18T01:37:00.149Z,102544.09
2018-04-18T01:39:25.829Z,102539.03
2018-04-18T01:41:51.522Z,102548.81
2018-04-18T01:44:17.210Z,102548.55
2018-04-18T01:46:42.887Z,102543.40
2018-04-18T01:49:14.575Z,102550.02
2018-04-18T01:51:40.279Z,102550.09
2018-04-18T01:54:05.959Z,102547.53
2018-04-18T01:56:31.642Z,102549.36
2018-04-18T01:58:57.300Z,102551.48
2018-04-18T02:01:23.067Z,102551.06
2018-04-18T02:03:48.727Z,102555.35
2018-04-18T02:06:14.439Z,102545.48
2018-04-18T02:08:40.115Z,102552.69
2018-04-18T02:11:05.775Z,102560.15
2018-04-18T02:13:31.455Z,102557.09
2018-04-18T02:15:57.133Z,102559.72
2018-04-18T02:18:22.811Z,102560.27
2018-04-18T02:20:48.503Z,102564.20
2018-04-18T02:23:14.209Z,102559.72
2018-04-18T02:25:40.202Z,102565.87
2018-04-18T02:28:05.866Z,102560.42
2018-04-18T02:30:31.560Z,102561.81
2018-04-18T02:32:57.231Z,102566.80
2018-04-18T02:35:23.160Z,102564.86
2018-04-18T02:37:48.830Z,102569.42
2018-04-18T02:40:14.563Z,102573.09
2018-04-18T02:42:40.242Z,102566.78
2018-04-18T02:45:05.908Z,102559.05
2018-04-18T02:47:31.629Z,102571.03
2018-04-18T02:49:57.327Z,102566.39
2018-04-18T02:52:23.009Z,102567.00
2018-04-18T03:00:20.670Z,102581.20
2018-04-18T03:02:46.691Z,102581.36
2018-04-18T03:05:12.362Z,102582.58
2018-04-18T03:07:38.053Z,102592.28
2018-04-18T03:10:03.713Z,102588.02
2018-04-18T03:12:29.406Z,102592.26
2018-04-18T03:14:55.279Z,102593.38
2018-04-18T03:17:20.956Z,102593.02
2018-04-18T03:19:46.638Z,102567.53
2018-04-18T03:22:12.327Z,102581.58
2018-04-18T03:24:37.999Z,102597.16
2018-04-18T03:27:03.711Z,102593.86
2018-04-18T03:29:29.467Z,102601.84
2018-04-18T03:31:55.169Z,102597.16
2018-04-18T03:34:20.851Z,102598.23
2018-04-18T03:36:46.559Z,102589.13
2018-04-18T03:39:12.230Z,102603.20
2018-04-18T03:41:37.919Z,102609.80
2018-04-18T03:44:03.591Z,102611.19
2018-04-18T03:46:29.280Z,102613.85
2018-04-18T03:48:54.968Z,102614.34
2018-04-18T03:51:20.706Z,102616.20
2018-04-18T03:53:46.427Z,102615.03
2018-04-18T03:56:12.117Z,102615.38
2018-04-18T03:58:37.791Z,102612.44
2018-04-18T04:01:03.485Z,102620.23
2018-04-18T04:03:29.163Z,102615.06
2018-04-18T04:05:54.822Z,102622.98
2018-04-18T04:08:20.539Z,102626.52
2018-04-18T04:10:46.307Z,102632.27
2018-04-18T04:13:12.007Z,102629.83
2018-04-18T04:15:37.689Z,102632.17
2018-04-18T04:18:09.503Z,102631.38
2018-04-18T04:20:41.498Z,102637.38
2018-04-18T04:23:13.271Z,102637.98
2018-04-18T04:25:39.054Z,102652.53
2018-04-18T04:28:04.782Z,102648.77
2018-04-18T04:30:30.450Z,102654.88
2018-04-18T04:32:56.175Z,102649.80
2018-04-18T04:35:21.860Z,102660.69
2018-04-18T04:37:47.544Z,102664.10
2018-04-18T04:40:13.239Z,102660.73
2018-04-18T04:42:38.938Z,102668.22
2018-04-18T04:45:04.618Z,102665.83
2018-04-18T04:47:30.291Z,102666.91
2018-04-18T04:49:55.959Z,102669.31
2018-04-18T04:52:21.688Z,102671.05
2018-04-18T04:54:47.359Z,102669.96
2018-04-18T04:57:13.080Z,102676.34
2018-04-18T04:59:38.746Z,102678.48
2018-04-18T05:02:04.462Z,102683.16
2018-04-18T05:04:30.133Z,102687.10
2018-04-18T05:06:55.822Z,102692.82
2018-04-18T05:09:21.501Z,102695.27
2018-04-18T05:11:47.388Z,102699.50
2018-04-18T05:14:13.094Z,102695.23
2018-04-18T05:16:38.763Z,102704.15
2018-04-18T05:19:04.599Z,102685.66
2018-04-18T05:21:30.254Z,102708.23
2018-04-18T05:23:55.938Z,102707.06
2018-04-18T05:26:21.639Z,102715.51
2018-04-18T05:28:47.322Z,102708.26
2018-04-18T05:31:12.995Z,102708.75
2018-04-18T05:33:38.703Z,102717.63
2018-04-18T05:36:04.371Z,102719.50
2018-04-18T05:38:30.075Z,102721.42
2018-04-18T05:40:55.763Z,102720.94
2018-04-18T05:43:21.472Z,102711.05
2018-04-18T05:45:47.135Z,102727.98
2018-04-18T05:51:15.232Z,102732.17
2018-04-18T05:53:41.033Z,102732.97
2018-04-18T05:56:06.706Z,102734.06
2018-04-18T05:58:32.395Z,102738.73
2018-04-18T06:00:58.086Z,102741.22
2018-04-18T06:03:23.763Z,102744.13
2018-04-18T06:05:49.443Z,102749.63
2018-04-18T06:08:15.114Z,102743.75
2018-04-18T06:10:40.864Z,102745.03
2018-04-18T06:13:06.557Z,102754.44
2018-04-18T06:15:32.227Z,102752.53
2018-04-18T06:17:57.913Z,102760.70
2018-04-18T06:20:23.598Z,102763.13
2018-04-18T06:22:49.311Z,102765.51
2018-04-18T06:25:14.990Z,102763.47
2018-04-18T06:27:40.674Z,102765.94
2018-04-18T06:30:06.341Z,102768.85
2018-04-18T06:32:32.059Z,102763.40
2018-04-18T06:34:57.758Z,102763.72
2018-04-18T06:37:23.433Z,102771.09
2018-04-18T06:39:49.122Z,102776.99
2018-04-18T06:42:14.818Z,102778.67
2018-04-18T06:44:40.490Z,102783.78
2018-04-18T06:47:06.187Z,102785.76
2018-04-18T06:49:31.891Z,102789.91
2018-04-18T06:51:57.566Z,102780.95
2018-04-18T06:54:23.307Z,102793.05
2018-04-18T06:56:48.974Z,102790.59
2018-04-18T06:59:14.659Z,102795.99
2018-04-18T07:01:40.361Z,102796.95
2018-04-18T07:04:06.048Z,102807.64
2018-04-18T07:06:31.716Z,102806.05
2018-04-18T07:08:57.436Z,102806.63
2018-04-18T07:11:23.095Z,102804.36
2018-04-18T07:13:49.038Z,102808.61
2018-04-18T07:16:14.752Z,102808.83
2018-04-18T07:18:40.426Z,102806.19
2018-04-18T07:21:06.122Z,102809.02
2018-04-18T07:23:31.806Z,102806.41
2018-04-18T07:25:57.470Z,102806.53
2018-04-18T07:28:23.157Z,102809.44
2018-04-18T07:30:48.879Z,102808.28
2018-04-18T07:33:29.495Z,102812.61
2018-04-18T07:35:55.166Z,102812.80
2018-04-18T07:38:20.852Z,102815.14
2018-04-18T07:40:46.533Z,102817.47
2018-04-18T07:43:12.316Z,102816.71
2018-04-18T07:45:38.024Z,102815.75
2018-04-18T07:48:03.720Z,102820.34
2018-04-18T07:50:29.389Z,102828.29
2018-04-18T07:52:55.106Z,102830.31
2018-04-18T07:55:20.790Z,102829.73
2018-04-18T07:57:46.483Z,102832.47
2018-04-18T08:00:12.175Z,102835.85
2018-04-18T08:02:37.849Z,102838.05
2018-04-18T08:05:03.523Z,102840.88
2018-04-18T08:07:29.204Z,102845.89
2018-04-18T08:09:54.913Z,102845.95
2018-04-18T08:12:20.581Z,102848.44
2018-04-18T08:14:46.263Z,102846.20
2018-04-18T08:17:11.933Z,102843.16
2018-04-18T08:19:37.594Z,102849.20
2018-04-18T08:22:03.299Z,102853.52
2018-04-18T08:24:28.990Z,102860.28
2018-04-18T08:26:54.698Z,102860.05
2018-04-18T08:29:20.416Z,102860.70
2018-04-18T08:31:46.088Z,102863.48
2018-04-18T08:34:11.782Z,102867.81
2018-04-18T08:36:37.509Z,102860.34
2018-04-18T08:39:03.207Z,102859.59
2018-04-18T08:41:28.855Z,102858.34
2018-04-18T08:43:54.519Z,102868.22
2018-04-18T08:46:20.203Z,102864.67
2018-04-18T08:48:45.872Z,102859.16
2018-04-18T08:51:11.555Z,102863.52
2018-04-18T08:53:37.263Z,102863.95
2018-04-18T08:56:02.955Z,102860.46
2018-04-18T08:58:28.611Z,102854.51
2018-04-18T09:00:54.292Z,102863.28
2018-04-18T09:03:20.150Z,102865.94
2018-04-18T09:05:45.839Z,102853.55
2018-04-18T09:08:11.507Z,102862.41
2018-04-18T09:10:37.158Z,102862.47
2018-04-18T09:13:02.810Z,102862.62
2018-04-18T09:15:28.531Z,102862.40
2018-04-18T09:17:54.215Z,102863.60
2018-04-18T09:20:19.900Z,102857.84
2018-04-18T09:22:45.585Z,102860.77
2018-04-18T09:25:11.284Z,102863.79
2018-04-18T09:27:36.946Z,102864.00
2018-04-18T09:30:02.618Z,102867.98
2018-04-18T09:32:28.275Z,102871.47
2018-04-18T09:34:53.945Z,102859.83
2018-04-18T09:37:19.754Z,102868.72
2018-04-18T09:39:45.447Z,102862.95
2018-04-18T09:42:11.283Z,102866.99
2018-04-18T09:44:36.947Z,102866.29
2018-04-18T09:47:02.670Z,102855.65
2018-04-18T09:49:28.331Z,102858.03
2018-04-18T09:51:54.006Z,102864.13
2018-04-18T09:54:19.671Z,102866.08
2018-04-18T09:56:45.578Z,102871.45
2018-04-18T09:59:11.232Z,102869.73
2018-04-18T10:01:41.958Z,102861.94
2018-04-18T10:04:09.459Z,102862.92
2018-04-18T10:06:35.153Z,102867.45
2018-04-18T10:09:00.846Z,102868.83
2018-04-18T10:11:26.509Z,102868.64
2018-04-18T10:13:52.448Z,102868.45
2018-04-18T10:16:18.134Z,102866.70
2018-04-18T10:18:43.816Z,102861.89
2018-04-18T10:21:09.503Z,102862.77
2018-04-18T10:23:35.165Z,102861.90
2018-04-18T10:26:01.001Z,102868.34
2018-04-18T10:28:26.663Z,102868.47
2018-04-18T10:30:52.337Z,102866.32
2018-04-18T10:33:17.994Z,102869.25
2018-04-18T10:35:43.687Z,102868.89
2018-04-18T10:38:09.432Z,102867.63
2018-04-18T10:40:35.080Z,102865.31
2018-04-18T10:43:00.769Z,102868.73
2018-04-18T10:45:26.430Z,102860.84
2018-04-18T10:47:52.158Z,102863.42
2018-04-18T10:50:17.824Z,102864.91
2018-04-18T10:52:43.559Z,102862.16
2018-04-18T10:55:09.567Z,102868.16
2018-04-18T10:57:35.255Z,102862.95
2018-04-18T11:00:00.929Z,102860.59
2018-04-18T11:02:26.587Z,102862.96
2018-04-18T11:04:52.246Z,102852.66
2018-04-18T11:07:17.946Z,102857.81
2018-04-18T11:09:43.601Z,102852.80
2018-04-18T11:12:09.259Z,102859.06
2018-04-18T11:14:34.911Z,102863.38
2018-04-18T11:17:00.609Z,102859.55
2018-04-18T11:19:26.304Z,102867.03
2018-04-18T11:21:52.034Z,102853.13
2018-04-18T11:24:17.707Z,102862.00
2018-04-18T11:26:43.354Z,102858.86
2018-04-18T11:29:09.035Z,102856.50
2018-04-18T11:31:34.697Z,102875.17
2018-04-18T11:34:00.367Z,102867.67
2018-04-18T11:36:26.021Z,102860.59
2018-04-18T11:38:52.007Z,102853.59
2018-04-18T11:41:17.677Z,102861.11
2018-04-18T11:43:43.366Z,102850.30
2018-04-18T11:46:09.027Z,102858.20
2018-04-18T11:48:34.695Z,102860.77
2018-04-18T11:51:00.407Z,102860.95
2018-04-18T11:53:26.101Z,102860.97
2018-04-18T11:55:51.778Z,102857.99
2018-04-18T11:58:17.476Z,102856.76
2018-04-18T12:00:43.143Z,102858.58
2018-04-18T12:03:08.851Z,102865.34
2018-04-18T12:05:34.514Z,102864.90
2018-04-18T12:08:00.190Z,102860.05
2018-04-18T12:10:25.873Z,102867.09
2018-04-18T12:12:51.563Z,102857.74
2018-04-18T12:15:17.344Z,102858.77
2018-04-18T12:17:43.029Z,102856.33
2018-04-18T12:20:08.686Z,102865.02
2018-04-18T12:22:34.342Z,102853.19
2018-04-18T12:25:00.027Z,102852.53
2018-04-18T12:27:25.726Z,102852.58
2018-04-18T12:29:51.710Z,102861.45
2018-04-18T12:32:17.366Z,102858.88
2018-04-18T12:34:43.067Z,102854.45
2018-04-18T12:37:08.737Z,102848.36
2018-04-18T12:39:34.415Z,102853.76
2018-04-18T12:42:00.103Z,102855.20
2018-04-18T12:44:25.771Z,102853.73
2018-04-18T12:46:51.460Z,102850.50
2018-04-18T12:49:17.506Z,102849.34
2018-04-18T12:51:43.243Z,102852.50
2018-04-18T12:54:08.939Z,102853.27
2018-04-18T12:56:34.863Z,102851.09
2018-04-18T12:59:00.622Z,102856.45
2018-04-18T13:01:26.286Z,102860.00
2018-04-18T13:03:51.966Z,102856.66
2018-04-18T13:06:17.680Z,102849.16
2018-04-18T13:08:43.388Z,102845.88
2018-04-18T13:11:09.062Z,102848.31
2018-04-18T13:13:34.855Z,102844.86
2018-04-18T13:16:00.548Z,102845.21
2018-04-18T13:18:26.279Z,102840.30
2018-04-18T13:20:51.966Z,102840.23
2018-04-18T13:23:17.670Z,102830.46
2018-04-18T13:25:43.360Z,102841.27
2018-04-18T13:28:09.031Z,102834.16
2018-04-18T13:30:34.715Z,102835.56
2018-04-18T13:33:00.375Z,102829.11
2018-04-18T13:35:26.072Z,102831.90
2018-04-18T13:37:51.772Z,102828.12
2018-04-18T13:40:17.461Z,102823.82
2018-04-18T13:42:43.135Z,102825.08
2018-04-18T13:45:08.826Z,102826.16
2018-04-18T13:47:34.527Z,102823.06
2018-04-18T13:50:00.202Z,102827.58
2018-04-18T13:52:25.876Z,102820.71
2018-04-18T13:54:51.593Z,102820.31
2018-04-18T13:57:17.267Z,102821.40
2018-04-18T13:59:42.938Z,102818.05
2018-04-18T14:02:08.752Z,102817.63
2018-04-18T14:04:34.464Z,102820.97
2018-04-18T14:07:00.199Z,102816.22
2018-04-18T14:09:25.952Z,102815.80
2018-04-18T14:11:51.642Z,102825.17
2018-04-18T14:14:17.357Z,102815.80
2018-04-18T14:16:43.020Z,102820.48
2018-04-18T14:19:08.715Z,102818.89
2018-04-18T14:21:34.388Z,102821.13
2018-04-18T14:24:00.103Z,102815.12
2018-04-18T14:26:25.802Z,102813.78
2018-04-18T14:28:51.491Z,102808.17
2018-04-18T14:31:17.154Z,102805.38
2018-04-18T14:33:42.863Z,102798.98
2018-04-18T14:36:08.546Z,102801.72
2018-04-18T14:38:34.228Z,102805.91
2018-04-18T14:40:59.952Z,102804.40
2018-04-18T14:43:25.627Z,102798.20
2018-04-18T14:45:51.326Z,102799.55
2018-04-18T14:48:16.983Z,102802.16
2018-04-18T14:50:42.694Z,102806.17
2018-04-18T14:53:08.373Z,102804.40
2018-04-18T14:55:34.107Z,102794.88
2018-04-18T14:57:59.779Z,102801.50
2018-04-18T15:00:25.537Z,102806.92
2018-04-18T15:02:51.215Z,102798.89
2018-04-18T15:05:16.929Z,102798.05
2018-04-18T15:07:42.589Z,102798.66
2018-04-18T15:10:08.279Z,102793.50
2018-04-18T15:12:34.021Z,102794.80
2018-04-18T15:14:59.684Z,102799.03
2018-04-18T15:17:25.354Z,102798.02
2018-04-18T15:19:51.059Z,102795.17
2018-04-18T15:22:16.788Z,102798.00
2018-04-18T15:24:42.463Z,102796.83
2018-04-18T15:27:08.172Z,102792.41
2018-04-18T15:29:33.919Z,102786.81
2018-04-18T15:31:59.652Z,102787.38
2018-04-18T15:34:25.345Z,102783.52
2018-04-18T15:36:51.043Z,102783.10
2018-04-18T15:39:16.707Z,102786.88
2018-04-18T15:41:42.382Z,102784.49
2018-04-18T15:44:08.081Z,102779.16
2018-04-18T15:46:39.922Z,102784.25
2018-04-18T15:49:05.594Z,102788.16
2018-04-18T15:51:31.537Z,102782.67
2018-04-18T15:53:57.218Z,102785.66
2018-04-18T15:56:22.901Z,102781.66
2018-04-18T15:58:48.599Z,102785.07
2018-04-18T16:01:14.336Z,102800.63
2018-04-18T16:03:39.982Z,102797.95
2018-04-18T16:06:05.662Z,102779.86
2018-04-18T16:08:31.344Z,102790.66
2018-04-18T16:10:57.031Z,102784.12
2018-04-18T16:13:22.707Z,102785.11
2018-04-18T16:15:48.416Z,102784.52
2018-04-18T16:18:14.091Z,102788.53
2018-04-18T16:20:39.788Z,102788.38
2018-04-18T16:23:05.467Z,102784.02
2018-04-18T16:25:31.146Z,102783.50
2018-04-18T16:27:57.181Z,102779.38
2018-04-18T16:30:29.046Z,102777.45
2018-04-18T16:32:54.764Z,102783.36
2018-04-18T16:35:20.435Z,102782.02
2018-04-18T16:37:46.302Z,102781.59
2018-04-18T16:40:11.974Z,102788.17
2018-04-18T16:42:37.694Z,102780.08
2018-04-18T16:45:03.388Z,102783.73
2018-04-18T16:47:29.370Z,102764.49
2018-04-18T16:49:55.036Z,102782.89
2018-04-18T16:52:20.774Z,102784.16
2018-04-18T16:54:46.489Z,102788.30
2018-04-18T16:57:12.181Z,102784.36
2018-04-18T16:59:37.852Z,102782.50
2018-04-18T17:02:03.555Z,102778.83
2018-04-18T17:04:29.397Z,102773.31
2018-04-18T17:06:55.093Z,102771.38
2018-04-18T17:09:20.793Z,102773.87
2018-04-18T17:11:46.438Z,102771.50
2018-04-18T17:14:12.213Z,102775.50
2018-04-18T17:16:37.907Z,102774.55
2018-04-18T17:19:03.599Z,102773.45
2018-04-18T17:21:29.302Z,102772.92
2018-04-18T17:23:54.946Z,102770.91
2018-04-18T17:26:20.646Z,102768.66
2018-04-18T17:31:41.804Z,102772.80
2018-04-18T17:34:07.495Z,102779.50
2018-04-18T17:36:33.179Z,102781.30
2018-04-18T17:38:58.886Z,102779.28
2018-04-18T17:41:24.547Z,102775.63
2018-04-18T17:43:50.219Z,102770.41
2018-04-18T17:46:15.913Z,102774.46
2018-04-18T17:48:41.617Z,102772.39
2018-04-18T17:51:07.293Z,102774.79
2018-04-18T17:53:33.034Z,102747.94
2018-04-18T17:55:58.753Z,102780.58
2018-04-18T17:58:24.433Z,102775.09
2018-04-18T18:00:50.090Z,102779.83
2018-04-18T18:03:15.759Z,102776.58
2018-04-18T18:05:41.456Z,102783.45
2018-04-18T18:08:07.140Z,102783.49
2018-04-18T18:10:32.826Z,102786.84
2018-04-18T18:12:58.496Z,102793.83
2018-04-18T18:15:24.158Z,102794.58
2018-04-18T18:17:49.828Z,102795.67
2018-04-18T18:20:15.511Z,102799.08
2018-04-18T18:22:41.177Z,102801.63
2018-04-18T18:25:06.864Z,102795.66
2018-04-18T18:27:32.596Z,102797.73
2018-04-18T18:29:58.539Z,102797.55
2018-04-18T18:32:24.215Z,102802.16
2018-04-18T18:34:49.895Z,102798.30
2018-04-18T18:37:15.562Z,102797.47
2018-04-18T18:39:41.238Z,102800.30
2018-04-18T18:42:06.911Z,102810.55
2018-04-18T18:44:32.593Z,102815.09
2018-04-18T18:46:58.279Z,102812.17
2018-04-18T18:49:24.011Z,102811.83
2018-04-18T18:51:49.683Z,102817.16
2018-04-18T18:54:15.589Z,102816.05
2018-04-18T18:56:41.250Z,102821.43
2018-04-18T18:59:06.990Z,102825.64
2018-04-18T19:01:32.647Z,102826.06
2018-04-18T19:03:58.321Z,102824.73
2018-04-18T19:06:23.974Z,102828.70
2018-04-18T19:08:49.654Z,102840.25
2018-04-18T19:11:15.328Z,102838.02
2018-04-18T19:13:41.028Z,102839.77
2018-04-18T19:16:06.720Z,102849.34
2018-04-18T19:18:32.374Z,102844.30
2018-04-18T19:20:58.064Z,102845.14
2018-04-18T19:23:23.756Z,102849.02
2018-04-18T19:25:49.455Z,102856.15
2018-04-18T19:28:15.125Z,102854.27
2018-04-18T19:30:40.787Z,102855.87
2018-04-18T19:33:06.486Z,102856.62
2018-04-18T19:35:32.159Z,102864.73
2018-04-18T19:37:57.836Z,102863.25
2018-04-18T19:40:23.519Z,102868.02
2018-04-18T19:42:49.198Z,102861.42
2018-04-18T19:45:14.884Z,102863.58
2018-04-18T19:47:40.636Z,102853.75
2018-04-18T19:50:06.300Z,102854.86
2018-04-18T19:52:31.991Z,102855.44
2018-04-18T19:54:57.676Z,102860.95
2018-04-18T19:57:23.579Z,102861.64
2018-04-18T19:59:49.264Z,102864.98
2018-04-18T20:02:14.940Z,102861.68
2018-04-18T20:04:40.619Z,102859.67
2018-04-18T20:07:06.324Z,102863.10
2018-04-18T20:09:32.014Z,102861.25
2018-04-18T20:11:57.695Z,102858.94
2018-04-18T20:14:23.378Z,102859.39
2018-04-18T20:16:49.107Z,102864.15
2018-04-18T20:19:14.763Z,102865.36
2018-04-18T20:21:40.435Z,102862.75
2018-04-18T20:24:06.108Z,102858.83
2018-04-18T20:26:31.792Z,102863.55
2018-04-18T20:28:57.464Z,102863.09
2018-04-18T20:31:23.151Z,102872.41
2018-04-18T20:33:48.836Z,102857.36
2018-04-18T20:36:14.523Z,102858.61
2018-04-18T20:38:40.199Z,102853.91
2018-04-18T20:41:05.880Z,102861.23
2018-04-18T20:43:31.552Z,102857.92
2018-04-18T20:45:57.247Z,102860.83
2018-04-18T20:48:22.956Z,102863.82
2018-04-18T20:50:48.682Z,102869.14
2018-04-18T20:53:14.643Z,102871.57
2018-04-18T20:55:40.515Z,102868.31
2018-04-18T20:58:06.188Z,102872.07
2018-04-18T21:00:31.885Z,102876.21
2018-04-18T21:02:57.578Z,102878.77
2018-04-18T21:05:23.255Z,102875.03
2018-04-18T21:07:48.932Z,102880.59
2018-04-18T21:10:14.603Z,102884.95
2018-04-18T21:12:40.362Z,102886.95
2018-04-18T21:15:06.043Z,102896.37
2018-04-18T21:17:31.732Z,102894.67
2018-04-18T21:19:57.422Z,102895.58
2018-04-18T21:22:23.110Z,102900.96
2018-04-18T21:24:48.773Z,102897.03
2018-04-18T21:27:14.475Z,102896.61
2018-04-18T21:29:40.158Z,102898.84
2018-04-18T21:32:05.838Z,102909.88
2018-04-18T21:34:31.514Z,102897.52
2018-04-18T21:36:57.180Z,102893.59
2018-04-18T21:39:22.856Z,102890.61
2018-04-18T21:41:48.551Z,102899.27
2018-04-18T21:44:21.095Z,102909.73
2018-04-18T21:46:46.807Z,102899.84
2018-04-18T21:49:12.495Z,102908.52
2018-04-18T21:51:38.159Z,102913.77
2018-04-18T21:54:03.875Z,102911.07
2018-04-18T21:56:29.551Z,102908.74
2018-04-18T21:58:55.287Z,102905.95
2018-04-18T22:01:20.959Z,102907.05
2018-04-18T22:03:46.781Z,102904.23
2018-04-18T22:06:12.479Z,102898.75
2018-04-18T22:08:38.164Z,102899.47
2018-04-18T22:11:03.846Z,102897.75
2018-04-18T22:13:29.535Z,102906.46
2018-04-18T22:15:55.396Z,102906.36
2018-04-18T22:18:21.066Z,102912.92
2018-04-18T22:20:46.735Z,102904.44
2018-04-18T22:23:12.413Z,102900.25
2018-04-18T22:25:38.110Z,102902.41
2018-04-18T22:28:03.778Z,102911.67
2018-04-18T22:30:29.507Z,102906.69
2018-04-18T22:32:55.213Z,102904.22
2018-04-18T22:35:20.882Z,102904.41
2018-04-18T22:37:46.571Z,102907.23
2018-04-18T22:40:12.231Z,102910.72
2018-04-18T22:42:37.925Z,102909.97
2018-04-18T22:45:03.597Z,102893.36
2018-04-18T22:47:29.299Z,102903.66
2018-04-18T22:49:54.999Z,102903.84
2018-04-18T22:52:20.683Z,102898.78
2018-04-18T22:54:46.411Z,102898.53
2018-04-18T22:57:12.144Z,102904.48
2018-04-18T22:59:37.815Z,102905.08
2018-04-18T23:02:03.838Z,102899.55
2018-04-18T23:04:29.711Z,102895.38
2018-04-18T23:06:55.834Z,102893.76
2018-04-18T23:09:21.844Z,102895.36
2018-04-18T23:11:48.300Z,102891.27
2018-04-18T23:14:14.535Z,102888.08
2018-04-18T23:16:40.255Z,102894.08
2018-04-18T23:19:06.463Z,102891.78
2018-04-18T23:21:32.193Z,102888.51
2018-04-18T23:23:57.870Z,102885.27
2018-04-18T23:26:23.743Z,102877.98
2018-04-18T23:28:49.452Z,102885.20
2018-04-18T23:31:15.395Z,102872.95
2018-04-18T23:33:41.067Z,102882.23
2018-04-18T23:36:06.762Z,102884.67
2018-04-18T23:38:32.447Z,102887.11
2018-04-18T23:40:58.127Z,102886.95
2018-04-18T23:43:23.822Z,102864.84
2018-04-18T23:45:49.564Z,102882.53
2018-04-18T23:48:15.400Z,102875.16
2018-04-18T23:50:41.064Z,102879.34
2018-04-18T23:53:06.819Z,102872.10
2018-04-18T23:55:32.497Z,102871.08
2018-04-18T23:57:58.197Z,102868.66
